sensor_id;sensor_type;location;lat;lon;timestamp;P1;durP1;ratioP1;P2;durP2;ratioP2
12577;SDS011;6354;51.026;8.968;2022-09-17T00:01:24;5.13;;;4.10;;
12577;SDS011;6354;51.026;8.968;2022-09-17T00:03:54;5.83;;;4.30;;
12577;SDS011;6354;51.026;8.968;2022-09-17T00:06:25;7.57;;;4.40;;
12577;SDS011;6354;51.026;8.968;2022-09-17T00:08:53;6.73;;;4.07;;
12577;SDS011;6354;51.026;8.968;2022-09-17T00:11:22;4.77;;;3.97;;
12577;SDS011;6354;51.026;8.968;2022-09-17T00:13:52;8.30;;;4.03;;
12577;SDS011;6354;51.026;8.968;2022-09-17T00:16:29;7.67;;;4.37;;
12577;SDS011;6354;51.026;8.968;2022-09-17T00:18:59;6.03;;;3.70;;
12577;SDS011;6354;51.026;8.968;2022-09-17T00:21:28;3.10;;;2.80;;
12577;SDS011;6354;51.026;8.968;2022-09-17T00:23:56;3.40;;;3.10;;
12577;SDS011;6354;51.026;8.968;2022-09-17T00:26:26;3.50;;;3.20;;
12577;SDS011;6354;51.026;8.968;2022-09-17T00:28:57;4.13;;;2.90;;
12577;SDS011;6354;51.026;8.968;2022-09-17T00:31:26;4.00;;;3.10;;
12577;SDS011;6354;51.026;8.968;2022-09-17T00:33:55;4.40;;;2.87;;
12577;SDS011;6354;51.026;8.968;2022-09-17T00:36:25;3.10;;;2.53;;
12577;SDS011;6354;51.026;8.968;2022-09-17T00:38:53;2.37;;;2.07;;
12577;SDS011;6354;51.026;8.968;2022-09-17T00:41:24;4.30;;;2.20;;
12577;SDS011;6354;51.026;8.968;2022-09-17T00:43:54;2.30;;;2.10;;
12577;SDS011;6354;51.026;8.968;2022-09-17T00:46:27;3.10;;;2.57;;
12577;SDS011;6354;51.026;8.968;2022-09-17T00:49:00;3.83;;;2.40;;
12577;SDS011;6354;51.026;8.968;2022-09-17T00:51:36;4.53;;;2.67;;
12577;SDS011;6354;51.026;8.968;2022-09-17T00:54:08;5.13;;;3.03;;
12577;SDS011;6354;51.026;8.968;2022-09-17T00:56:38;3.93;;;2.90;;
12577;SDS011;6354;51.026;8.968;2022-09-17T00:59:08;3.47;;;3.00;;
12577;SDS011;6354;51.026;8.968;2022-09-17T01:01:38;4.70;;;2.60;;
12577;SDS011;6354;51.026;8.968;2022-09-17T01:04:09;4.67;;;3.13;;
12577;SDS011;6354;51.026;8.968;2022-09-17T01:06:44;4.40;;;3.10;;
12577;SDS011;6354;51.026;8.968;2022-09-17T01:09:24;3.33;;;3.03;;
12577;SDS011;6354;51.026;8.968;2022-09-17T01:12:01;3.40;;;3.10;;
12577;SDS011;6354;51.026;8.968;2022-09-17T01:14:46;4.47;;;3.13;;
12577;SDS011;6354;51.026;8.968;2022-09-17T01:17:29;3.77;;;3.13;;
12577;SDS011;6354;51.026;8.968;2022-09-17T01:23:09;5.83;;;3.30;;
12577;SDS011;6354;51.026;8.968;2022-09-17T01:25:57;4.00;;;3.70;;
12577;SDS011;6354;51.026;8.968;2022-09-17T01:28:40;4.23;;;2.83;;
12577;SDS011;6354;51.026;8.968;2022-09-17T01:34:03;4.03;;;2.97;;
12577;SDS011;6354;51.026;8.968;2022-09-17T01:36:45;3.43;;;2.90;;
12577;SDS011;6354;51.026;8.968;2022-09-17T01:39:24;4.20;;;2.87;;
12577;SDS011;6354;51.026;8.968;2022-09-17T01:42:01;3.80;;;3.10;;
12577;SDS011;6354;51.026;8.968;2022-09-17T01:44:36;4.07;;;3.00;;
12577;SDS011;6354;51.026;8.968;2022-09-17T01:47:14;4.87;;;3.10;;
12577;SDS011;6354;51.026;8.968;2022-09-17T01:49:46;4.33;;;2.90;;
12577;SDS011;6354;51.026;8.968;2022-09-17T01:52:17;4.80;;;2.90;;
12577;SDS011;6354;51.026;8.968;2022-09-17T01:54:48;3.20;;;2.90;;
12577;SDS011;6354;51.026;8.968;2022-09-17T01:57:21;4.00;;;3.20;;
12577;SDS011;6354;51.026;8.968;2022-09-17T01:59:54;3.40;;;3.03;;
12577;SDS011;6354;51.026;8.968;2022-09-17T02:02:28;4.90;;;2.90;;
12577;SDS011;6354;51.026;8.968;2022-09-17T02:04:59;4.23;;;2.93;;
12577;SDS011;6354;51.026;8.968;2022-09-17T02:07:33;2.50;;;2.30;;
12577;SDS011;6354;51.026;8.968;2022-09-17T02:10:08;2.90;;;2.70;;
12577;SDS011;6354;51.026;8.968;2022-09-17T02:12:39;3.13;;;2.93;;
12577;SDS011;6354;51.026;8.968;2022-09-17T02:15:11;3.70;;;3.17;;
12577;SDS011;6354;51.026;8.968;2022-09-17T02:17:48;5.23;;;3.23;;
12577;SDS011;6354;51.026;8.968;2022-09-17T02:20:22;3.77;;;2.70;;
12577;SDS011;6354;51.026;8.968;2022-09-17T02:22:54;3.50;;;2.63;;
12577;SDS011;6354;51.026;8.968;2022-09-17T02:25:25;2.97;;;2.77;;
12577;SDS011;6354;51.026;8.968;2022-09-17T02:27:59;3.83;;;2.90;;
12577;SDS011;6354;51.026;8.968;2022-09-17T02:30:29;3.20;;;2.90;;
12577;SDS011;6354;51.026;8.968;2022-09-17T02:32:59;2.70;;;2.50;;
12577;SDS011;6354;51.026;8.968;2022-09-17T02:35:29;3.87;;;2.77;;
12577;SDS011;6354;51.026;8.968;2022-09-17T02:37:58;2.90;;;2.70;;
12577;SDS011;6354;51.026;8.968;2022-09-17T02:40:28;3.03;;;2.57;;
12577;SDS011;6354;51.026;8.968;2022-09-17T02:43:04;2.50;;;2.30;;
12577;SDS011;6354;51.026;8.968;2022-09-17T02:45:43;4.53;;;2.40;;
12577;SDS011;6354;51.026;8.968;2022-09-17T02:48:25;2.83;;;2.20;;
12577;SDS011;6354;51.026;8.968;2022-09-17T02:51:09;3.50;;;2.27;;
12577;SDS011;6354;51.026;8.968;2022-09-17T02:53:48;2.23;;;2.03;;
12577;SDS011;6354;51.026;8.968;2022-09-17T02:56:27;3.57;;;2.10;;
12577;SDS011;6354;51.026;8.968;2022-09-17T02:59:09;2.17;;;1.80;;
12577;SDS011;6354;51.026;8.968;2022-09-17T03:01:45;3.00;;;2.33;;
12577;SDS011;6354;51.026;8.968;2022-09-17T03:04:20;3.03;;;2.47;;
12577;SDS011;6354;51.026;8.968;2022-09-17T03:06:50;4.20;;;2.40;;
12577;SDS011;6354;51.026;8.968;2022-09-17T03:09:19;3.97;;;2.30;;
12577;SDS011;6354;51.026;8.968;2022-09-17T03:11:47;3.87;;;2.00;;
12577;SDS011;6354;51.026;8.968;2022-09-17T03:14:15;4.50;;;2.27;;
12577;SDS011;6354;51.026;8.968;2022-09-17T03:16:46;7.10;;;2.30;;
12577;SDS011;6354;51.026;8.968;2022-09-17T03:19:14;4.67;;;2.60;;
12577;SDS011;6354;51.026;8.968;2022-09-17T03:21:43;5.63;;;2.37;;
12577;SDS011;6354;51.026;8.968;2022-09-17T03:24:12;4.97;;;2.43;;
12577;SDS011;6354;51.026;8.968;2022-09-17T03:26:40;5.07;;;2.20;;
12577;SDS011;6354;51.026;8.968;2022-09-17T03:29:08;4.73;;;2.80;;
12577;SDS011;6354;51.026;8.968;2022-09-17T03:31:36;5.50;;;2.67;;
12577;SDS011;6354;51.026;8.968;2022-09-17T03:34:04;4.10;;;2.70;;
12577;SDS011;6354;51.026;8.968;2022-09-17T03:36:32;4.97;;;2.40;;
12577;SDS011;6354;51.026;8.968;2022-09-17T03:39:02;6.03;;;3.03;;
12577;SDS011;6354;51.026;8.968;2022-09-17T03:41:31;4.20;;;2.70;;
12577;SDS011;6354;51.026;8.968;2022-09-17T03:43:59;4.33;;;2.60;;
12577;SDS011;6354;51.026;8.968;2022-09-17T03:46:27;9.87;;;2.70;;
12577;SDS011;6354;51.026;8.968;2022-09-17T03:48:55;6.30;;;3.20;;
12577;SDS011;6354;51.026;8.968;2022-09-17T03:51:23;7.27;;;3.17;;
12577;SDS011;6354;51.026;8.968;2022-09-17T03:53:51;7.63;;;3.20;;
12577;SDS011;6354;51.026;8.968;2022-09-17T03:56:20;10.93;;;3.80;;
12577;SDS011;6354;51.026;8.968;2022-09-17T03:58:48;9.27;;;3.73;;
12577;SDS011;6354;51.026;8.968;2022-09-17T04:01:16;13.33;;;4.13;;
12577;SDS011;6354;51.026;8.968;2022-09-17T04:03:45;9.83;;;4.30;;
12577;SDS011;6354;51.026;8.968;2022-09-17T04:06:13;10.97;;;4.03;;
12577;SDS011;6354;51.026;8.968;2022-09-17T04:08:41;13.67;;;4.87;;
12577;SDS011;6354;51.026;8.968;2022-09-17T04:11:09;15.30;;;4.80;;
12577;SDS011;6354;51.026;8.968;2022-09-17T04:13:38;12.73;;;4.73;;
12577;SDS011;6354;51.026;8.968;2022-09-17T04:16:06;15.30;;;5.07;;
12577;SDS011;6354;51.026;8.968;2022-09-17T04:18:35;16.10;;;4.93;;
12577;SDS011;6354;51.026;8.968;2022-09-17T04:21:03;14.27;;;5.10;;
12577;SDS011;6354;51.026;8.968;2022-09-17T04:23:31;18.83;;;5.20;;
12577;SDS011;6354;51.026;8.968;2022-09-17T04:25:59;11.73;;;5.20;;
12577;SDS011;6354;51.026;8.968;2022-09-17T04:28:27;14.23;;;5.20;;
12577;SDS011;6354;51.026;8.968;2022-09-17T04:30:57;14.60;;;5.17;;
12577;SDS011;6354;51.026;8.968;2022-09-17T04:33:25;12.63;;;5.67;;
12577;SDS011;6354;51.026;8.968;2022-09-17T04:35:53;14.30;;;5.20;;
12577;SDS011;6354;51.026;8.968;2022-09-17T04:38:21;17.23;;;5.40;;
12577;SDS011;6354;51.026;8.968;2022-09-17T04:40:49;13.07;;;5.67;;
12577;SDS011;6354;51.026;8.968;2022-09-17T04:43:17;15.67;;;5.67;;
12577;SDS011;6354;51.026;8.968;2022-09-17T04:45:45;15.53;;;6.00;;
12577;SDS011;6354;51.026;8.968;2022-09-17T04:48:16;14.83;;;5.80;;
12577;SDS011;6354;51.026;8.968;2022-09-17T04:50:44;16.23;;;5.93;;
12577;SDS011;6354;51.026;8.968;2022-09-17T04:53:12;14.47;;;6.07;;
12577;SDS011;6354;51.026;8.968;2022-09-17T04:55:41;19.53;;;6.20;;
12577;SDS011;6354;51.026;8.968;2022-09-17T04:58:09;13.97;;;6.20;;
12577;SDS011;6354;51.026;8.968;2022-09-17T05:00:37;13.63;;;5.57;;
12577;SDS011;6354;51.026;8.968;2022-09-17T05:03:05;14.57;;;5.90;;
12577;SDS011;6354;51.026;8.968;2022-09-17T05:05:35;15.13;;;5.70;;
12577;SDS011;6354;51.026;8.968;2022-09-17T05:08:03;10.83;;;5.63;;
12577;SDS011;6354;51.026;8.968;2022-09-17T05:10:33;13.00;;;5.90;;
12577;SDS011;6354;51.026;8.968;2022-09-17T05:13:01;12.77;;;5.73;;
12577;SDS011;6354;51.026;8.968;2022-09-17T05:15:29;17.30;;;6.10;;
12577;SDS011;6354;51.026;8.968;2022-09-17T05:17:57;12.77;;;6.17;;
12577;SDS011;6354;51.026;8.968;2022-09-17T05:20:25;14.90;;;6.27;;
12577;SDS011;6354;51.026;8.968;2022-09-17T05:22:55;17.40;;;6.37;;
12577;SDS011;6354;51.026;8.968;2022-09-17T05:25:23;14.67;;;6.67;;
12577;SDS011;6354;51.026;8.968;2022-09-17T05:27:51;19.33;;;7.00;;
12577;SDS011;6354;51.026;8.968;2022-09-17T05:30:20;13.87;;;6.43;;
12577;SDS011;6354;51.026;8.968;2022-09-17T05:32:48;17.93;;;6.47;;
12577;SDS011;6354;51.026;8.968;2022-09-17T05:35:25;19.03;;;6.83;;
12577;SDS011;6354;51.026;8.968;2022-09-17T05:37:59;20.93;;;6.67;;
12577;SDS011;6354;51.026;8.968;2022-09-17T05:40:28;14.93;;;6.03;;
12577;SDS011;6354;51.026;8.968;2022-09-17T05:42:58;15.80;;;6.20;;
12577;SDS011;6354;51.026;8.968;2022-09-17T05:45:26;13.87;;;6.10;;
12577;SDS011;6354;51.026;8.968;2022-09-17T05:47:55;16.97;;;6.17;;
12577;SDS011;6354;51.026;8.968;2022-09-17T05:50:24;17.53;;;6.40;;
12577;SDS011;6354;51.026;8.968;2022-09-17T05:52:53;15.23;;;5.63;;
12577;SDS011;6354;51.026;8.968;2022-09-17T05:55:23;15.10;;;5.53;;
12577;SDS011;6354;51.026;8.968;2022-09-17T05:57:53;11.37;;;5.13;;
12577;SDS011;6354;51.026;8.968;2022-09-17T06:00:21;16.57;;;6.23;;
12577;SDS011;6354;51.026;8.968;2022-09-17T06:02:52;15.70;;;6.40;;
12577;SDS011;6354;51.026;8.968;2022-09-17T06:05:21;14.20;;;5.70;;
12577;SDS011;6354;51.026;8.968;2022-09-17T06:07:49;17.47;;;6.23;;
12577;SDS011;6354;51.026;8.968;2022-09-17T06:10:17;15.17;;;5.33;;
12577;SDS011;6354;51.026;8.968;2022-09-17T06:12:47;15.07;;;6.37;;
12577;SDS011;6354;51.026;8.968;2022-09-17T06:15:15;11.10;;;5.30;;
12577;SDS011;6354;51.026;8.968;2022-09-17T06:17:43;13.97;;;5.97;;
12577;SDS011;6354;51.026;8.968;2022-09-17T06:20:11;17.37;;;5.97;;
12577;SDS011;6354;51.026;8.968;2022-09-17T06:22:41;17.17;;;6.00;;
12577;SDS011;6354;51.026;8.968;2022-09-17T06:25:09;10.27;;;4.87;;
12577;SDS011;6354;51.026;8.968;2022-09-17T06:27:38;15.63;;;6.20;;
12577;SDS011;6354;51.026;8.968;2022-09-17T06:30:08;13.20;;;5.83;;
12577;SDS011;6354;51.026;8.968;2022-09-17T06:32:36;18.20;;;5.90;;
12577;SDS011;6354;51.026;8.968;2022-09-17T06:35:04;12.80;;;5.73;;
12577;SDS011;6354;51.026;8.968;2022-09-17T06:37:33;15.20;;;5.60;;
12577;SDS011;6354;51.026;8.968;2022-09-17T06:40:06;18.37;;;6.77;;
12577;SDS011;6354;51.026;8.968;2022-09-17T06:42:35;11.50;;;5.30;;
12577;SDS011;6354;51.026;8.968;2022-09-17T06:45:03;20.13;;;5.93;;
12577;SDS011;6354;51.026;8.968;2022-09-17T06:47:39;15.17;;;5.47;;
12577;SDS011;6354;51.026;8.968;2022-09-17T06:50:08;18.87;;;6.07;;
12577;SDS011;6354;51.026;8.968;2022-09-17T06:52:36;16.10;;;5.97;;
12577;SDS011;6354;51.026;8.968;2022-09-17T06:55:04;14.73;;;5.30;;
12577;SDS011;6354;51.026;8.968;2022-09-17T06:57:33;15.80;;;5.43;;
12577;SDS011;6354;51.026;8.968;2022-09-17T07:00:01;14.67;;;5.20;;
12577;SDS011;6354;51.026;8.968;2022-09-17T07:02:30;19.03;;;4.97;;
12577;SDS011;6354;51.026;8.968;2022-09-17T07:04:59;20.00;;;5.20;;
12577;SDS011;6354;51.026;8.968;2022-09-17T07:07:28;17.57;;;5.80;;
12577;SDS011;6354;51.026;8.968;2022-09-17T07:09:56;23.60;;;5.80;;
12577;SDS011;6354;51.026;8.968;2022-09-17T07:12:24;24.10;;;5.80;;
12577;SDS011;6354;51.026;8.968;2022-09-17T07:14:52;17.23;;;4.57;;
12577;SDS011;6354;51.026;8.968;2022-09-17T07:17:20;15.63;;;5.20;;
12577;SDS011;6354;51.026;8.968;2022-09-17T07:19:48;13.57;;;4.63;;
12577;SDS011;6354;51.026;8.968;2022-09-17T07:22:17;17.63;;;5.17;;
12577;SDS011;6354;51.026;8.968;2022-09-17T07:24:45;15.23;;;5.13;;
12577;SDS011;6354;51.026;8.968;2022-09-17T07:27:14;15.73;;;5.00;;
12577;SDS011;6354;51.026;8.968;2022-09-17T07:29:42;9.50;;;4.20;;
12577;SDS011;6354;51.026;8.968;2022-09-17T07:32:10;11.93;;;4.27;;
12577;SDS011;6354;51.026;8.968;2022-09-17T07:34:38;13.37;;;4.17;;
12577;SDS011;6354;51.026;8.968;2022-09-17T07:37:06;17.87;;;4.47;;
12577;SDS011;6354;51.026;8.968;2022-09-17T07:39:35;13.30;;;4.70;;
12577;SDS011;6354;51.026;8.968;2022-09-17T07:42:03;20.70;;;4.53;;
12577;SDS011;6354;51.026;8.968;2022-09-17T07:44:32;13.67;;;4.20;;
12577;SDS011;6354;51.026;8.968;2022-09-17T07:47:00;16.33;;;4.73;;
12577;SDS011;6354;51.026;8.968;2022-09-17T07:49:28;15.77;;;4.20;;
12577;SDS011;6354;51.026;8.968;2022-09-17T07:51:56;15.53;;;3.90;;
12577;SDS011;6354;51.026;8.968;2022-09-17T07:54:25;12.30;;;3.83;;
12577;SDS011;6354;51.026;8.968;2022-09-17T07:56:55;13.53;;;3.93;;
12577;SDS011;6354;51.026;8.968;2022-09-17T07:59:23;12.37;;;4.00;;
12577;SDS011;6354;51.026;8.968;2022-09-17T08:01:51;14.20;;;4.00;;
12577;SDS011;6354;51.026;8.968;2022-09-17T08:04:19;15.23;;;3.77;;
12577;SDS011;6354;51.026;8.968;2022-09-17T08:06:48;14.70;;;3.80;;
12577;SDS011;6354;51.026;8.968;2022-09-17T08:09:16;11.47;;;3.63;;
12577;SDS011;6354;51.026;8.968;2022-09-17T08:11:44;16.10;;;3.83;;
12577;SDS011;6354;51.026;8.968;2022-09-17T08:14:29;12.27;;;3.20;;
12577;SDS011;6354;51.026;8.968;2022-09-17T08:16:57;10.50;;;2.97;;
12577;SDS011;6354;51.026;8.968;2022-09-17T08:19:25;9.30;;;3.10;;
12577;SDS011;6354;51.026;8.968;2022-09-17T08:21:53;9.87;;;3.03;;
12577;SDS011;6354;51.026;8.968;2022-09-17T08:24:21;11.33;;;3.13;;
12577;SDS011;6354;51.026;8.968;2022-09-17T08:26:49;12.90;;;3.50;;
12577;SDS011;6354;51.026;8.968;2022-09-17T08:29:18;11.33;;;3.00;;
12577;SDS011;6354;51.026;8.968;2022-09-17T08:31:47;11.37;;;3.30;;
12577;SDS011;6354;51.026;8.968;2022-09-17T08:34:15;12.33;;;3.50;;
12577;SDS011;6354;51.026;8.968;2022-09-17T08:36:43;11.53;;;2.83;;
12577;SDS011;6354;51.026;8.968;2022-09-17T08:39:11;9.53;;;2.90;;
12577;SDS011;6354;51.026;8.968;2022-09-17T08:41:43;10.67;;;3.00;;
12577;SDS011;6354;51.026;8.968;2022-09-17T08:44:25;8.53;;;2.60;;
12577;SDS011;6354;51.026;8.968;2022-09-17T08:46:59;7.13;;;2.83;;
12577;SDS011;6354;51.026;8.968;2022-09-17T08:49:32;14.23;;;3.37;;
12577;SDS011;6354;51.026;8.968;2022-09-17T08:52:21;7.47;;;2.93;;
12577;SDS011;6354;51.026;8.968;2022-09-17T08:55:18;11.70;;;3.37;;
12577;SDS011;6354;51.026;8.968;2022-09-17T08:58:03;10.07;;;2.60;;
12577;SDS011;6354;51.026;8.968;2022-09-17T09:01:06;9.40;;;2.83;;
12577;SDS011;6354;51.026;8.968;2022-09-17T09:04:03;8.17;;;2.43;;
12577;SDS011;6354;51.026;8.968;2022-09-17T09:06:45;8.93;;;2.40;;
12577;SDS011;6354;51.026;8.968;2022-09-17T09:09:16;10.10;;;2.70;;
12577;SDS011;6354;51.026;8.968;2022-09-17T09:11:47;9.67;;;2.93;;
12577;SDS011;6354;51.026;8.968;2022-09-17T09:14:21;8.90;;;2.70;;
12577;SDS011;6354;51.026;8.968;2022-09-17T09:16:54;10.97;;;2.83;;
12577;SDS011;6354;51.026;8.968;2022-09-17T09:19:25;7.93;;;2.57;;
12577;SDS011;6354;51.026;8.968;2022-09-17T09:21:59;6.53;;;2.47;;
12577;SDS011;6354;51.026;8.968;2022-09-17T09:24:32;8.83;;;2.63;;
12577;SDS011;6354;51.026;8.968;2022-09-17T09:27:13;7.63;;;2.73;;
12577;SDS011;6354;51.026;8.968;2022-09-17T09:29:47;10.23;;;4.17;;
12577;SDS011;6354;51.026;8.968;2022-09-17T09:32:26;9.77;;;2.90;;
12577;SDS011;6354;51.026;8.968;2022-09-17T09:35:15;7.23;;;2.90;;
12577;SDS011;6354;51.026;8.968;2022-09-17T09:37:47;7.83;;;3.03;;
12577;SDS011;6354;51.026;8.968;2022-09-17T09:40:34;10.13;;;2.80;;
12577;SDS011;6354;51.026;8.968;2022-09-17T09:43:10;12.37;;;3.30;;
12577;SDS011;6354;51.026;8.968;2022-09-17T09:45:50;10.27;;;2.70;;
12577;SDS011;6354;51.026;8.968;2022-09-17T09:48:37;7.77;;;2.60;;
12577;SDS011;6354;51.026;8.968;2022-09-17T09:51:26;14.60;;;3.13;;
12577;SDS011;6354;51.026;8.968;2022-09-17T09:54:06;12.07;;;3.10;;
12577;SDS011;6354;51.026;8.968;2022-09-17T09:59:33;9.97;;;3.10;;
12577;SDS011;6354;51.026;8.968;2022-09-17T10:02:02;11.37;;;2.80;;
12577;SDS011;6354;51.026;8.968;2022-09-17T10:04:31;9.60;;;2.77;;
12577;SDS011;6354;51.026;8.968;2022-09-17T10:07:01;7.77;;;3.00;;
12577;SDS011;6354;51.026;8.968;2022-09-17T10:09:32;8.00;;;2.50;;
12577;SDS011;6354;51.026;8.968;2022-09-17T10:12:03;7.70;;;2.77;;
12577;SDS011;6354;51.026;8.968;2022-09-17T10:14:42;8.73;;;2.37;;
12577;SDS011;6354;51.026;8.968;2022-09-17T10:17:13;9.10;;;2.60;;
12577;SDS011;6354;51.026;8.968;2022-09-17T10:22:48;10.70;;;2.67;;
12577;SDS011;6354;51.026;8.968;2022-09-17T10:28:16;9.97;;;2.43;;
12577;SDS011;6354;51.026;8.968;2022-09-17T10:30:54;7.23;;;2.47;;
12577;SDS011;6354;51.026;8.968;2022-09-17T10:33:24;8.40;;;2.43;;
12577;SDS011;6354;51.026;8.968;2022-09-17T10:35:55;7.87;;;2.50;;
12577;SDS011;6354;51.026;8.968;2022-09-17T10:38:28;8.33;;;2.37;;
12577;SDS011;6354;51.026;8.968;2022-09-17T10:41:08;10.40;;;2.70;;
12577;SDS011;6354;51.026;8.968;2022-09-17T10:43:41;9.50;;;2.60;;
12577;SDS011;6354;51.026;8.968;2022-09-17T10:46:10;8.77;;;2.47;;
12577;SDS011;6354;51.026;8.968;2022-09-17T10:48:42;4.83;;;1.90;;
12577;SDS011;6354;51.026;8.968;2022-09-17T10:51:18;8.68;;;2.22;;
12577;SDS011;6354;51.026;8.968;2022-09-17T10:54:00;10.18;;;2.53;;
12577;SDS011;6354;51.026;8.968;2022-09-17T10:56:45;8.20;;;2.50;;
12577;SDS011;6354;51.026;8.968;2022-09-17T10:59:22;8.63;;;2.60;;
12577;SDS011;6354;51.026;8.968;2022-09-17T11:02:25;9.90;;;2.60;;
12577;SDS011;6354;51.026;8.968;2022-09-17T11:05:21;9.37;;;2.50;;
12577;SDS011;6354;51.026;8.968;2022-09-17T11:08:05;6.20;;;2.00;;
12577;SDS011;6354;51.026;8.968;2022-09-17T11:10:40;6.82;;;2.00;;
12577;SDS011;6354;51.026;8.968;2022-09-17T11:13:20;7.67;;;2.10;;
12577;SDS011;6354;51.026;8.968;2022-09-17T11:16:04;5.22;;;1.90;;
12577;SDS011;6354;51.026;8.968;2022-09-17T11:18:40;6.87;;;2.40;;
12577;SDS011;6354;51.026;8.968;2022-09-17T11:30:15;5.63;;;2.00;;
12577;SDS011;6354;51.026;8.968;2022-09-17T11:32:58;6.30;;;2.00;;
12577;SDS011;6354;51.026;8.968;2022-09-17T11:35:46;8.07;;;2.00;;
12577;SDS011;6354;51.026;8.968;2022-09-17T11:38:17;6.87;;;1.97;;
12577;SDS011;6354;51.026;8.968;2022-09-17T11:40:51;4.35;;;1.75;;
12577;SDS011;6354;51.026;8.968;2022-09-17T11:43:28;6.80;;;1.63;;
12577;SDS011;6354;51.026;8.968;2022-09-17T11:45:59;6.85;;;2.55;;
12577;SDS011;6354;51.026;8.968;2022-09-17T11:48:34;6.67;;;2.00;;
12577;SDS011;6354;51.026;8.968;2022-09-17T11:51:07;5.27;;;2.00;;
12577;SDS011;6354;51.026;8.968;2022-09-17T11:53:46;6.87;;;2.13;;
12577;SDS011;6354;51.026;8.968;2022-09-17T11:56:18;5.93;;;1.67;;
12577;SDS011;6354;51.026;8.968;2022-09-17T11:58:54;6.97;;;1.80;;
12577;SDS011;6354;51.026;8.968;2022-09-17T12:01:27;6.57;;;2.17;;
12577;SDS011;6354;51.026;8.968;2022-09-17T12:04:04;5.97;;;2.20;;
12577;SDS011;6354;51.026;8.968;2022-09-17T12:06:48;5.93;;;1.63;;
12577;SDS011;6354;51.026;8.968;2022-09-17T12:09:24;4.18;;;1.52;;
12577;SDS011;6354;51.026;8.968;2022-09-17T12:11:56;3.88;;;1.55;;
12577;SDS011;6354;51.026;8.968;2022-09-17T12:14:35;4.43;;;1.23;;
12577;SDS011;6354;51.026;8.968;2022-09-17T12:17:11;4.40;;;1.52;;
12577;SDS011;6354;51.026;8.968;2022-09-17T12:19:43;4.95;;;1.30;;
12577;SDS011;6354;51.026;8.968;2022-09-17T12:22:18;3.00;;;1.48;;
12577;SDS011;6354;51.026;8.968;2022-09-17T12:24:49;4.95;;;1.50;;
12577;SDS011;6354;51.026;8.968;2022-09-17T12:27:21;4.43;;;1.60;;
12577;SDS011;6354;51.026;8.968;2022-09-17T12:30:03;3.53;;;1.35;;
12577;SDS011;6354;51.026;8.968;2022-09-17T12:32:43;3.53;;;1.25;;
12577;SDS011;6354;51.026;8.968;2022-09-17T12:38:45;3.72;;;1.10;;
12577;SDS011;6354;51.026;8.968;2022-09-17T12:41:30;3.03;;;1.17;;
12577;SDS011;6354;51.026;8.968;2022-09-17T12:44:21;2.50;;;1.10;;
12577;SDS011;6354;51.026;8.968;2022-09-17T12:47:16;3.13;;;1.20;;
12577;SDS011;6354;51.026;8.968;2022-09-17T12:50:12;4.50;;;1.40;;
12577;SDS011;6354;51.026;8.968;2022-09-17T12:52:58;2.53;;;1.23;;
12577;SDS011;6354;51.026;8.968;2022-09-17T12:55:39;2.87;;;1.03;;
12577;SDS011;6354;51.026;8.968;2022-09-17T12:58:22;3.80;;;1.27;;
12577;SDS011;6354;51.026;8.968;2022-09-17T13:01:00;3.27;;;1.17;;
12577;SDS011;6354;51.026;8.968;2022-09-17T13:03:35;1.80;;;1.00;;
12577;SDS011;6354;51.026;8.968;2022-09-17T13:06:15;5.00;;;1.17;;
12577;SDS011;6354;51.026;8.968;2022-09-17T13:09:22;2.37;;;1.07;;
12577;SDS011;6354;51.026;8.968;2022-09-17T13:12:07;2.80;;;1.17;;
12577;SDS011;6354;51.026;8.968;2022-09-17T13:17:35;6.57;;;1.57;;
12577;SDS011;6354;51.026;8.968;2022-09-17T13:20:16;3.60;;;1.30;;
12577;SDS011;6354;51.026;8.968;2022-09-17T13:22:52;3.97;;;1.03;;
12577;SDS011;6354;51.026;8.968;2022-09-17T13:25:23;7.83;;;1.50;;
12577;SDS011;6354;51.026;8.968;2022-09-17T13:28:02;4.20;;;1.23;;
12577;SDS011;6354;51.026;8.968;2022-09-17T13:36:36;6.85;;;1.15;;
12577;SDS011;6354;51.026;8.968;2022-09-17T13:42:10;2.03;;;0.90;;
12577;SDS011;6354;51.026;8.968;2022-09-17T13:44:42;1.57;;;0.83;;
12577;SDS011;6354;51.026;8.968;2022-09-17T13:47:21;2.63;;;0.97;;
12577;SDS011;6354;51.026;8.968;2022-09-17T13:49:53;2.57;;;0.90;;
12577;SDS011;6354;51.026;8.968;2022-09-17T13:52:40;2.05;;;1.00;;
12577;SDS011;6354;51.026;8.968;2022-09-17T13:58:00;2.80;;;1.07;;
12577;SDS011;6354;51.026;8.968;2022-09-17T14:00:48;2.57;;;0.80;;
12577;SDS011;6354;51.026;8.968;2022-09-17T14:03:26;2.38;;;0.70;;
12577;SDS011;6354;51.026;8.968;2022-09-17T14:09:46;1.90;;;0.80;;
12577;SDS011;6354;51.026;8.968;2022-09-17T14:18:35;1.30;;;0.77;;
12577;SDS011;6354;51.026;8.968;2022-09-17T14:21:21;1.93;;;0.70;;
12577;SDS011;6354;51.026;8.968;2022-09-17T14:23:54;3.10;;;0.60;;
12577;SDS011;6354;51.026;8.968;2022-09-17T14:26:30;0.97;;;0.57;;
12577;SDS011;6354;51.026;8.968;2022-09-17T14:29:12;1.10;;;0.53;;
12577;SDS011;6354;51.026;8.968;2022-09-17T14:31:52;2.30;;;0.60;;
12577;SDS011;6354;51.026;8.968;2022-09-17T14:34:20;2.23;;;0.50;;
12577;SDS011;6354;51.026;8.968;2022-09-17T14:36:50;1.40;;;0.47;;
12577;SDS011;6354;51.026;8.968;2022-09-17T14:39:21;4.90;;;0.93;;
12577;SDS011;6354;51.026;8.968;2022-09-17T14:41:52;2.45;;;0.50;;
12577;SDS011;6354;51.026;8.968;2022-09-17T14:44:23;1.13;;;0.52;;
12577;SDS011;6354;51.026;8.968;2022-09-17T14:46:59;4.80;;;1.00;;
12577;SDS011;6354;51.026;8.968;2022-09-17T14:49:31;2.40;;;0.63;;
12577;SDS011;6354;51.026;8.968;2022-09-17T14:52:05;1.58;;;0.57;;
12577;SDS011;6354;51.026;8.968;2022-09-17T14:57:37;3.33;;;0.57;;
12577;SDS011;6354;51.026;8.968;2022-09-17T15:00:13;1.75;;;0.63;;
12577;SDS011;6354;51.026;8.968;2022-09-17T15:02:44;4.07;;;0.82;;
12577;SDS011;6354;51.026;8.968;2022-09-17T15:05:21;3.97;;;1.23;;
12577;SDS011;6354;51.026;8.968;2022-09-17T15:08:11;1.57;;;1.03;;
12577;SDS011;6354;51.026;8.968;2022-09-17T15:10:45;3.87;;;0.80;;
12577;SDS011;6354;51.026;8.968;2022-09-17T15:13:18;3.27;;;1.17;;
12577;SDS011;6354;51.026;8.968;2022-09-17T15:15:54;1.73;;;0.60;;
12577;SDS011;6354;51.026;8.968;2022-09-17T15:18:31;1.43;;;0.60;;
12577;SDS011;6354;51.026;8.968;2022-09-17T15:21:05;1.50;;;0.70;;
12577;SDS011;6354;51.026;8.968;2022-09-17T15:23:48;1.50;;;0.57;;
12577;SDS011;6354;51.026;8.968;2022-09-17T15:26:21;2.00;;;0.87;;
12577;SDS011;6354;51.026;8.968;2022-09-17T15:28:55;3.53;;;1.20;;
12577;SDS011;6354;51.026;8.968;2022-09-17T15:31:24;1.73;;;0.80;;
12577;SDS011;6354;51.026;8.968;2022-09-17T15:33:57;2.17;;;0.80;;
12577;SDS011;6354;51.026;8.968;2022-09-17T15:36:26;2.23;;;0.70;;
12577;SDS011;6354;51.026;8.968;2022-09-17T15:38:57;3.57;;;0.97;;
12577;SDS011;6354;51.026;8.968;2022-09-17T15:41:29;4.07;;;1.10;;
12577;SDS011;6354;51.026;8.968;2022-09-17T15:44:07;2.33;;;0.87;;
12577;SDS011;6354;51.026;8.968;2022-09-17T15:50:11;2.00;;;0.90;;
12577;SDS011;6354;51.026;8.968;2022-09-17T15:52:41;3.33;;;1.20;;
12577;SDS011;6354;51.026;8.968;2022-09-17T15:58:18;1.63;;;0.67;;
12577;SDS011;6354;51.026;8.968;2022-09-17T16:00:57;1.57;;;0.77;;
12577;SDS011;6354;51.026;8.968;2022-09-17T16:04:07;8.27;;;6.20;;
12577;SDS011;6354;51.026;8.968;2022-09-17T16:06:51;2.63;;;1.50;;
12577;SDS011;6354;51.026;8.968;2022-09-17T16:09:40;2.63;;;1.70;;
12577;SDS011;6354;51.026;8.968;2022-09-17T16:12:13;2.27;;;1.10;;
12577;SDS011;6354;51.026;8.968;2022-09-17T16:14:43;2.73;;;0.93;;
12577;SDS011;6354;51.026;8.968;2022-09-17T16:17:38;1.90;;;0.87;;
12577;SDS011;6354;51.026;8.968;2022-09-17T16:20:13;1.83;;;0.90;;
12577;SDS011;6354;51.026;8.968;2022-09-17T16:22:43;2.87;;;1.13;;
12577;SDS011;6354;51.026;8.968;2022-09-17T16:25:13;3.17;;;1.10;;
12577;SDS011;6354;51.026;8.968;2022-09-17T16:27:43;3.17;;;1.07;;
12577;SDS011;6354;51.026;8.968;2022-09-17T16:30:15;2.50;;;1.20;;
12577;SDS011;6354;51.026;8.968;2022-09-17T16:32:46;22.93;;;14.73;;
12577;SDS011;6354;51.026;8.968;2022-09-17T16:35:15;3.93;;;1.43;;
12577;SDS011;6354;51.026;8.968;2022-09-17T16:37:46;3.27;;;1.63;;